Lineville, Alabama
Current Conditions -  °F | °C
As of 11:53 PM on Saturday 22 Nov 2014 (Local Time) from KANB Reporting Station
Light Rain Light Rain  
Wind Chill: 55°   Ceiling: 2000
Heat Index: 55°   Visibility: 6mi
Dew Point: 48°   Wind: 9mph
Humidity: 77%   Direction: 90°E
Pressure: 30.11"   Gusts: NA
Location:  33.31°N, 85.75°W
Report Text: KANB 230553Z AUTO 09008KT 6SM -RA OVC020 13/09 A3011 RMK AO2 RAB48 SLP194 P0001 60001 T01280089 10161 20128 401940017 58025 $
Loading
Personal Weather Stations






























Interactive Weather Map New forecast layout! Learn more

10-Day Weather Forecast

Advertisements
Track Severe Weather on mobile